Time;durP1;ratioP1;P1;durP2;ratioP2;P2;SDS_P1;SDS_P2;PMS_P1;PMS_P2;Temp;Humidity;BMP_temperature;BMP_pressure;BME280_temperature;BME280_humidity;BME280_pressure;Samples;Min_cycle;Max_cycle;Signal;HPM_P1;HPM_P2
2021/06/13 00:00:16;;;;;;;;;0.00;0.00;;;;;21.07;51.15;101971.97;5124493;27;45218;-62
2021/06/13 00:02:42;;;;;;;;;0.00;0.00;;;;;21.05;51.41;101969.44;5124243;27;46781;-62
2021/06/13 00:05:09;;;;;;;;;0.00;0.00;;;;;21.03;51.56;101979.44;5124426;27;45205;-62
2021/06/13 00:07:35;;;;;;;;;0.00;0.00;;;;;21.01;51.72;101972.59;5124340;27;45372;-62
2021/06/13 00:10:00;;;;;;;;;0.00;0.00;;;;;20.97;51.57;101968.53;5106041;27;45684;-63
2021/06/13 00:12:26;;;;;;;;;0.00;0.00;;;;;20.91;51.79;101967.38;5111588;27;46285;-63
2021/06/13 00:14:51;;;;;;;;;0.00;0.00;;;;;20.94;51.59;101977.72;5123075;27;45312;-62
2021/06/13 00:17:17;;;;;;;;;0.00;0.00;;;;;20.94;51.71;101967.03;5112340;27;45306;-63
2021/06/13 00:19:43;;;;;;;;;0.00;0.00;;;;;20.87;52.72;101969.50;5123067;27;45327;-62
2021/06/13 00:22:09;;;;;;;;;3.00;3.00;;;;;20.85;53.13;101973.31;5123548;27;45348;-63
2021/06/13 00:24:34;;;;;;;;;0.00;0.00;;;;;20.77;52.47;101959.91;5124090;27;45344;-63
2021/06/13 00:26:59;;;;;;;;;0.00;0.00;;;;;20.79;52.13;101972.09;5124097;27;45599;-64
2021/06/13 00:29:25;;;;;;;;;0.00;0.00;;;;;20.82;52.33;101962.94;5124132;27;45320;-63
2021/06/13 00:31:50;;;;;;;;;0.00;0.00;;;;;20.80;52.58;101962.25;5123580;27;46735;-62
2021/06/13 00:34:15;;;;;;;;;0.00;0.00;;;;;20.80;53.31;101956.91;5099951;27;45423;-63
2021/06/13 00:36:41;;;;;;;;;0.00;0.00;;;;;20.81;52.85;101962.13;5102845;27;45261;-63
2021/06/13 00:39:06;;;;;;;;;0.00;0.00;;;;;20.79;52.72;101961.44;5122663;27;45255;-63
2021/06/13 00:41:32;;;;;;;;;0.00;0.00;;;;;20.75;53.98;101962.72;5124064;27;46460;-62
2021/06/13 00:43:57;;;;;;;;;0.00;0.00;;;;;20.64;53.51;101963.81;5105504;27;45362;-62
2021/06/13 00:46:22;;;;;;;;;0.00;0.00;;;;;20.43;54.44;101960.63;5124402;27;45535;-63
2021/06/13 00:48:48;;;;;;;;;0.00;0.00;;;;;20.26;55.23;101959.66;5124125;27;45429;-62
2021/06/13 00:51:13;;;;;;;;;0.00;0.00;;;;;20.18;55.10;101957.75;5123326;27;46546;-62
2021/06/13 00:53:39;;;;;;;;;0.00;0.00;;;;;20.17;55.35;101960.56;5123034;27;45505;-63
2021/06/13 00:56:05;;;;;;;;;0.00;0.00;;;;;20.14;54.22;101951.03;5112371;27;45294;-63
2021/06/13 00:58:31;;;;;;;;;0.00;0.00;;;;;20.17;55.15;101960.56;5121841;27;45476;-62
2021/06/13 01:00:57;;;;;;;;;0.00;0.00;;;;;20.07;54.91;101953.47;5123231;27;46285;-62
2021/06/13 01:03:22;;;;;;;;;0.00;0.00;;;;;20.09;55.19;101958.66;5104546;27;45353;-63
2021/06/13 01:05:47;;;;;;;;;0.00;0.00;;;;;19.99;56.25;101957.91;5123495;27;45456;-63
2021/06/13 01:08:21;;;;;;;;;0.00;0.00;;;;;19.93;55.78;101954.00;5123247;27;45302;-63
2021/06/13 01:10:55;;;;;;;;;0.00;0.00;;;;;19.85;56.21;101957.44;5122909;27;46162;-62
2021/06/13 01:13:45;;;;;;;;;0.00;0.00;;;;;19.85;55.28;101961.94;5123041;27;45392;-63
2021/06/13 01:16:29;;;;;;;;;0.00;0.00;;;;;19.86;55.55;101959.09;5123531;27;45300;-64
2021/06/13 01:19:46;;;;;;;;;0.00;0.00;;;;;19.89;55.77;101955.28;5123958;27;45354;-63
2021/06/13 01:22:26;;;;;;;;;0.00;0.00;;;;;19.68;56.35;101947.53;5048945;27;45348;-62
2021/06/13 01:25:04;;;;;;;;;0.00;0.00;;;;;19.75;56.46;101961.16;5123362;27;45320;-63
2021/06/13 01:27:32;;;;;;;;;0.00;0.00;;;;;19.71;55.79;101955.25;5123333;27;45279;-62
2021/06/13 01:30:00;;;;;;;;;0.00;0.00;;;;;19.70;56.22;101960.72;5123556;27;45427;-64
2021/06/13 01:32:29;;;;;;;;;0.00;0.00;;;;;19.72;56.03;101962.28;5122705;27;47085;-63
2021/06/13 01:34:58;;;;;;;;;0.00;0.00;;;;;19.70;56.21;101966.06;5112882;27;45391;-63
2021/06/13 01:37:26;;;;;;;;;0.00;0.00;;;;;19.63;56.63;101974.66;5102079;27;45388;-63
2021/06/13 01:39:58;;;;;;;;;0.00;0.00;;;;;19.60;56.37;101968.78;5114110;27;46467;-63
2021/06/13 01:42:25;;;;;;;;;0.00;0.00;;;;;19.53;56.82;101978.34;5122932;27;45288;-63
2021/06/13 01:44:53;;;;;;;;;0.00;0.00;;;;;19.52;56.60;101984.66;5123433;27;45419;-62
2021/06/13 01:47:21;;;;;;;;;0.00;0.00;;;;;19.55;56.69;101981.72;5123118;27;45353;-63
2021/06/13 01:49:47;;;;;;;;;0.00;0.00;;;;;19.56;56.45;101980.72;5123330;27;45327;-62
2021/06/13 01:52:14;;;;;;;;;0.00;0.00;;;;;19.55;57.05;101981.72;5122572;27;45484;-63
2021/06/13 01:54:41;;;;;;;;;0.00;0.00;;;;;19.56;56.91;101981.53;5122731;27;45243;-63
2021/06/13 01:57:07;;;;;;;;;0.00;0.00;;;;;19.56;56.82;101984.19;5123201;27;45305;-63
2021/06/13 01:59:34;;;;;;;;;0.00;0.00;;;;;19.55;56.04;101982.53;5123179;27;45267;-63
2021/06/13 02:02:00;;;;;;;;;0.00;0.00;;;;;19.46;57.14;101981.59;5103051;27;47357;-63
2021/06/13 02:04:28;;;;;;;;;0.00;0.00;;;;;19.45;56.99;101989.72;5122841;27;45368;-62
2021/06/13 02:06:59;;;;;;;;;0.00;0.00;;;;;19.42;56.91;101995.38;5123051;27;45385;-63
2021/06/13 02:09:25;;;;;;;;;0.00;0.00;;;;;19.37;56.86;101989.63;5104257;27;45553;-63
2021/06/13 02:11:54;;;;;;;;;0.00;0.00;;;;;19.33;57.96;101994.41;5122832;27;46413;-63
2021/06/13 02:14:22;;;;;;;;;0.00;0.00;;;;;19.29;57.29;101990.38;5122445;27;45283;-62
2021/06/13 02:16:48;;;;;;;;;0.00;0.00;;;;;19.34;56.76;101997.91;5122906;27;45451;-63
2021/06/13 02:19:18;;;;;;;;;0.00;0.00;;;;;19.36;56.71;101993.28;5122931;27;45278;-62
2021/06/13 02:21:45;;;;;;;;;0.00;0.00;;;;;19.42;56.90;102004.19;5122073;27;47106;-63
2021/06/13 02:24:11;;;;;;;;;0.00;0.00;;;;;19.45;56.28;101995.91;5122674;27;45359;-63
2021/06/13 02:26:40;;;;;;;;;0.00;0.00;;;;;19.48;56.38;102000.09;5122256;27;45341;-63
2021/06/13 02:29:07;;;;;;;;;0.00;0.00;;;;;19.47;56.84;102004.59;5120028;27;45282;-63
2021/06/13 02:31:33;;;;;;;;;0.00;0.00;;;;;19.44;56.10;101990.72;5111580;27;46580;-63
2021/06/13 02:34:01;;;;;;;;;0.00;0.00;;;;;19.43;56.84;102002.34;5122473;27;45239;-63
2021/06/13 02:36:28;;;;;;;;;0.00;0.00;;;;;19.35;56.49;102008.44;5122191;27;45270;-63
2021/06/13 02:38:55;;;;;;;;;0.00;0.00;;;;;19.34;56.27;102001.41;5122472;27;45401;-63
2021/06/13 02:41:21;;;;;;;;;0.00;0.00;;;;;19.36;57.06;101995.94;5122211;27;46559;-63
2021/06/13 02:43:47;;;;;;;;;0.00;0.00;;;;;19.31;56.84;102006.19;5122322;27;45284;-62
2021/06/13 02:46:13;;;;;;;;;0.00;0.00;;;;;19.27;56.96;102003.81;5122531;27;45272;-65
2021/06/13 02:48:38;;;;;;;;;0.00;0.00;;;;;19.20;57.98;102005.41;5122735;27;45186;-63
2021/06/13 02:51:04;;;;;;;;;0.00;0.00;;;;;19.13;57.42;102012.25;5103611;27;46894;-63
2021/06/13 02:53:42;;;;;;;;;0.00;0.00;;;;;19.04;57.63;102005.97;5121911;27;45406;-63
2021/06/13 02:56:23;;;;;;;;;0.25;0.00;;;;;18.99;57.48;102005.59;5122404;27;45271;-63
2021/06/13 02:59:03;;;;;;;;;0.00;0.00;;;;;18.95;57.32;102014.84;5122469;27;45411;-62
2021/06/13 03:01:30;;;;;;;;;0.00;0.00;;;;;18.96;57.46;102015.66;5122026;27;47269;-63
2021/06/13 03:03:56;;;;;;;;;0.00;0.00;;;;;18.98;57.37;102027.00;5121963;27;45162;-63
2021/06/13 03:06:24;;;;;;;;;0.00;0.00;;;;;19.03;57.08;102028.28;5103354;27;45278;-62
2021/06/13 03:08:50;;;;;;;;;0.00;0.00;;;;;19.02;57.31;102031.91;5122473;27;45183;-62
2021/06/13 03:11:18;;;;;;;;;0.25;0.00;;;;;18.98;57.67;102027.84;5119091;27;46660;-62
2021/06/13 03:13:46;;;;;;;;;0.00;0.00;;;;;18.90;57.13;102030.41;5104832;27;45508;-62
2021/06/13 03:16:12;;;;;;;;;0.00;0.00;;;;;18.89;57.33;102042.03;5125220;27;45314;-62
2021/06/13 03:18:41;;;;;;;;;0.00;0.00;;;;;18.83;57.08;102038.13;5125210;27;45227;-62
2021/06/13 03:21:07;;;;;;;;;0.00;0.00;;;;;18.77;57.31;102036.00;5107280;27;46541;-63
2021/06/13 03:23:34;;;;;;;;;0.00;0.00;;;;;18.74;57.79;102040.75;5085747;27;45307;-63
2021/06/13 03:26:02;;;;;;;;;0.00;0.00;;;;;18.75;57.39;102043.28;5122696;27;45361;-63
2021/06/13 03:28:30;;;;;;;;;0.00;0.00;;;;;18.78;57.70;102045.66;5125493;27;45611;-63
2021/06/13 03:30:57;;;;;;;;;0.00;0.00;;;;;18.75;57.50;102045.09;5125008;27;45474;-62
2021/06/13 03:33:24;;;;;;;;;0.00;0.00;;;;;18.76;57.13;102046.78;5125106;27;45325;-62
2021/06/13 03:35:51;;;;;;;;;0.00;0.00;;;;;18.69;57.57;102035.03;5124660;27;45438;-62
2021/06/13 03:38:18;;;;;;;;;0.00;0.00;;;;;18.76;57.29;102044.94;5113448;27;45712;-62
2021/06/13 03:40:45;;;;;;;;;0.00;0.00;;;;;18.74;57.52;102046.91;5123083;27;45261;-63
2021/06/13 03:43:12;;;;;;;;;0.00;0.00;;;;;18.69;58.06;102043.00;5124955;27;45231;-62
2021/06/13 03:45:38;;;;;;;;;0.00;0.00;;;;;18.63;57.56;102041.72;5125294;27;45320;-62
2021/06/13 03:48:05;;;;;;;;;0.00;0.00;;;;;18.60;57.89;102044.69;5125289;27;45484;-62
2021/06/13 03:50:31;;;;;;;;;0.00;0.00;;;;;18.58;57.81;102042.16;5125005;27;46098;-63
2021/06/13 03:52:57;;;;;;;;;0.00;0.00;;;;;18.56;58.27;102052.09;5124741;27;45256;-62
2021/06/13 03:55:22;;;;;;;;;0.00;0.00;;;;;18.56;57.55;102049.44;5124683;27;45252;-62
2021/06/13 03:57:51;;;;;;;;;0.00;0.00;;;;;18.58;57.99;102044.81;5113041;27;45330;-62
2021/06/13 04:00:18;;;;;;;;;0.00;0.00;;;;;18.64;57.56;102046.91;5123738;27;46455;-62
2021/06/13 04:02:46;;;;;;;;;0.50;0.00;;;;;18.67;57.31;102051.13;5124859;27;45355;-62
2021/06/13 04:05:14;;;;;;;;;0.00;0.00;;;;;18.66;57.48;102049.44;5124562;27;45273;-62
2021/06/13 04:07:41;;;;;;;;;0.00;0.00;;;;;18.68;57.50;102046.63;5124916;27;45265;-62
2021/06/13 04:10:07;;;;;;;;;0.00;0.00;;;;;18.65;57.48;102066.38;5124764;27;46288;-63
2021/06/13 04:12:34;;;;;;;;;0.00;0.00;;;;;18.61;57.35;102064.97;5117338;27;45522;-62
2021/06/13 04:15:00;;;;;;;;;0.00;0.00;;;;;18.58;57.32;102073.25;5118256;27;45337;-62
2021/06/13 04:17:26;;;;;;;;;0.00;0.00;;;;;18.59;57.22;102073.09;5104348;27;45226;-63
2021/06/13 04:19:54;;;;;;;;;0.00;0.00;;;;;18.61;57.23;102072.97;5104028;27;46267;-62
2021/06/13 04:22:21;;;;;;;;;0.00;0.00;;;;;18.60;57.21;102074.78;5098973;27;45975;-62
2021/06/13 04:24:48;;;;;;;;;0.00;0.00;;;;;18.61;56.64;102072.97;5124013;27;45278;-62
2021/06/13 04:27:18;;;;;;;;;0.00;0.00;;;;;18.57;56.78;102072.38;5124672;27;45258;-62
2021/06/13 04:29:44;;;;;;;;;0.00;0.00;;;;;18.53;56.88;102079.00;5124144;27;47578;-62
2021/06/13 04:32:10;;;;;;;;;0.00;0.00;;;;;18.53;57.61;102088.78;5109423;27;45274;-62
2021/06/13 04:34:39;;;;;;;;;0.00;0.00;;;;;18.53;56.82;102088.78;5104085;27;45653;-62
2021/06/13 04:37:07;;;;;;;;;0.00;0.00;;;;;18.55;56.38;102092.13;5103697;27;45316;-62
2021/06/13 04:39:34;;;;;;;;;0.00;0.00;;;;;18.52;57.04;102092.44;5103787;27;46344;-62
2021/06/13 04:42:06;;;;;;;;;0.00;0.00;;;;;18.49;56.76;102088.22;5103547;27;45215;-62
2021/06/13 04:44:32;;;;;;;;;0.00;0.00;;;;;18.48;57.47;102091.00;5103568;27;45237;-62
2021/06/13 04:46:57;;;;;;;;;0.00;0.00;;;;;18.46;57.12;102083.16;5103774;27;45474;-62
2021/06/13 04:49:23;;;;;;;;;0.00;0.00;;;;;18.45;56.95;102100.13;5122701;27;46269;-62
2021/06/13 04:51:55;;;;;;;;;0.00;0.00;;;;;18.45;57.01;102092.97;5107625;27;45378;-63
2021/06/13 04:54:37;;;;;;;;;0.00;0.00;;;;;18.50;56.73;102095.22;5113590;27;45289;-62
2021/06/13 04:57:14;;;;;;;;;0.00;0.00;;;;;18.58;56.83;102107.84;5088976;27;45436;-62
2021/06/13 04:59:39;;;;;;;;;0.00;0.00;;;;;18.61;56.36;102108.38;5123984;27;46353;-62
2021/06/13 05:02:05;;;;;;;;;0.00;0.00;;;;;18.58;56.94;102094.53;5123613;27;45562;-62
2021/06/13 05:04:30;;;;;;;;;0.00;0.00;;;;;18.57;57.16;102101.66;5123313;27;45360;-61
2021/06/13 05:06:56;;;;;;;;;0.00;0.00;;;;;18.60;56.13;102104.06;5124077;27;45311;-62
2021/06/13 05:09:22;;;;;;;;;0.00;0.00;;;;;18.55;56.72;102100.97;5105069;27;47045;-63
2021/06/13 05:11:47;;;;;;;;;0.00;0.00;;;;;18.59;56.58;102113.00;5116820;27;45249;-63
2021/06/13 05:14:13;;;;;;;;;0.00;0.00;;;;;18.54;57.08;102096.63;5117008;27;45819;-63
2021/06/13 05:16:41;;;;;;;;;0.00;0.00;;;;;18.59;56.09;102097.03;5124332;27;45296;-63
2021/06/13 05:19:07;;;;;;;;;0.00;0.00;;;;;18.63;56.10;102110.91;5123357;27;47339;-62
2021/06/13 05:21:32;;;;;;;;;0.00;0.00;;;;;18.62;56.22;102111.91;5116402;27;45369;-62
2021/06/13 05:24:00;;;;;;;;;0.00;0.00;;;;;18.63;56.14;102117.06;5103052;27;45421;-62
2021/06/13 05:26:26;;;;;;;;;0.00;0.00;;;;;18.65;55.71;102117.78;5091948;27;45234;-62
2021/06/13 05:28:52;;;;;;;;;0.00;0.00;;;;;18.62;56.25;102115.41;5123190;27;46051;-63
2021/06/13 05:31:17;;;;;;;;;0.00;0.00;;;;;18.62;55.96;102117.22;5123512;27;45170;-62
2021/06/13 05:33:42;;;;;;;;;0.00;0.00;;;;;18.65;55.63;102114.28;5123475;27;45431;-62
2021/06/13 05:36:08;;;;;;;;;1.00;0.00;;;;;18.65;55.14;102117.78;5123265;27;45452;-63
2021/06/13 05:38:33;;;;;;;;;0.00;0.00;;;;;18.69;54.50;102123.66;5109357;27;46025;-62
2021/06/13 05:40:58;;;;;;;;;0.00;0.00;;;;;18.72;54.69;102125.22;5122843;27;45222;-63
2021/06/13 05:43:24;;;;;;;;;0.00;0.00;;;;;18.76;54.54;102121.28;5123406;27;45234;-63
2021/06/13 05:45:49;;;;;;;;;0.00;0.00;;;;;18.80;54.50;102118.25;5123412;27;45151;-63
2021/06/13 05:48:14;;;;;;;;;0.00;0.00;;;;;18.85;54.34;102132.00;5123034;27;46368;-63
2021/06/13 05:50:40;;;;;;;;;0.00;0.00;;;;;18.89;53.82;102134.38;5122958;27;45304;-62
2021/06/13 05:53:07;;;;;;;;;0.00;0.00;;;;;18.89;53.43;102126.38;5122260;27;45435;-63
2021/06/13 05:55:34;;;;;;;;;0.00;0.00;;;;;18.98;53.51;102130.84;5103234;27;45608;-61
2021/06/13 05:57:59;;;;;;;;;0.00;0.00;;;;;19.07;53.33;102135.34;5102381;27;45288;-63
2021/06/13 06:00:30;;;;;;;;;0.00;0.00;;;;;19.20;52.96;102135.03;5121948;27;45314;-62
2021/06/13 06:02:56;;;;;;;;;0.00;0.00;;;;;19.33;52.45;102134.75;5104226;27;45321;-61
2021/06/13 06:05:21;;;;;;;;;0.00;0.00;;;;;19.38;51.51;102130.69;5123225;27;45532;-62
2021/06/13 06:07:48;;;;;;;;;1.00;0.00;;;;;19.39;51.37;102134.19;5122365;27;45596;-62
2021/06/13 06:10:15;;;;;;;;;0.00;0.00;;;;;19.42;50.82;102134.75;5115493;27;45381;-62
2021/06/13 06:12:43;;;;;;;;;0.00;0.00;;;;;19.76;50.72;102146.75;5105044;27;45191;-62
2021/06/13 06:15:09;;;;;;;;;0.00;0.00;;;;;20.23;49.09;102152.03;5123552;27;45466;-63
2021/06/13 06:17:34;;;;;;;;;0.00;0.00;;;;;20.73;48.83;102142.78;5122548;27;46960;-63
2021/06/13 06:20:00;;;;;;;;;0.00;0.00;;;;;21.26;47.44;102152.59;5123157;27;45407;-61
2021/06/13 06:22:25;;;;;;;;;0.00;0.00;;;;;21.64;45.95;102143.38;5122193;27;45441;-62
2021/06/13 06:24:51;;;;;;;;;0.00;0.00;;;;;22.03;45.61;102142.03;5122759;27;45261;-62
2021/06/13 06:27:16;;;;;;;;;0.00;0.00;;;;;22.48;44.89;102148.94;5089640;27;46969;-63
2021/06/13 06:29:42;;;;;;;;;0.00;0.00;;;;;22.84;44.52;102154.88;5109582;27;45286;-62
2021/06/13 06:32:07;;;;;;;;;0.00;0.00;;;;;23.14;43.72;102144.53;5122532;27;45319;-63
2021/06/13 06:34:33;;;;;;;;;0.00;0.00;;;;;23.44;42.96;102143.00;5122852;27;45448;-63
2021/06/13 06:36:58;;;;;;;;;0.00;0.00;;;;;23.66;42.39;102151.34;5122137;27;46725;-64
2021/06/13 06:39:23;;;;;;;;;0.00;0.00;;;;;23.78;39.80;102151.81;5122363;27;45324;-63
2021/06/13 06:41:49;;;;;;;;;0.00;0.00;;;;;23.80;40.21;102158.72;5121886;27;45420;-62
2021/06/13 06:44:15;;;;;;;;;0.00;0.00;;;;;23.75;38.23;102156.53;5122226;27;45320;-62
2021/06/13 06:46:41;;;;;;;;;0.00;0.00;;;;;23.70;38.77;102158.88;5122171;27;46647;-62
2021/06/13 06:49:07;;;;;;;;;0.00;0.00;;;;;23.70;39.41;102164.22;5124377;27;45257;-63
2021/06/13 06:51:33;;;;;;;;;0.00;0.00;;;;;23.89;39.55;102162.22;5107188;27;45347;-62
2021/06/13 06:53:59;;;;;;;;;0.00;0.00;;;;;24.01;38.86;102158.13;5125853;27;45268;-63
2021/06/13 06:56:25;;;;;;;;;0.00;0.00;;;;;24.24;37.28;102163.56;5107146;27;47268;-63
2021/06/13 06:58:52;;;;;;;;;0.00;0.00;;;;;24.36;37.80;102159.50;5106657;27;45295;-63
2021/06/13 07:01:17;;;;;;;;;0.00;0.00;;;;;24.68;38.79;102167.56;5111727;27;45319;-62
2021/06/13 07:03:42;;;;;;;;;0.00;0.00;;;;;24.89;36.19;102166.91;5112807;27;45323;-63
2021/06/13 07:06:08;;;;;;;;;0.00;0.00;;;;;24.95;36.11;102166.19;5125052;27;45380;-63
2021/06/13 07:08:33;;;;;;;;;0.00;0.00;;;;;25.11;34.75;102171.44;5125557;27;45360;-63
2021/06/13 07:10:59;;;;;;;;;0.00;0.00;;;;;25.31;35.75;102162.88;5124825;27;45669;-62
2021/06/13 07:13:24;;;;;;;;;0.00;0.00;;;;;25.38;34.44;102161.16;5112211;27;45242;-63
2021/06/13 07:15:49;;;;;;;;;0.00;0.00;;;;;25.55;34.77;102167.19;5125135;27;45438;-62
2021/06/13 07:18:15;;;;;;;;;0.00;0.00;;;;;25.71;33.98;102156.28;5118607;27;45310;-64
2021/06/13 07:20:41;;;;;;;;;0.00;0.00;;;;;25.92;35.13;102163.63;5104701;27;45308;-62
2021/06/13 07:23:06;;;;;;;;;0.00;0.00;;;;;26.31;34.49;102172.41;5104605;27;45316;-63
2021/06/13 07:25:31;;;;;;;;;0.00;0.00;;;;;26.52;33.38;102160.81;5118481;27;45425;-62
2021/06/13 07:27:57;;;;;;;;;0.00;0.00;;;;;26.67;33.16;102156.25;5125050;27;45244;-62
2021/06/13 07:30:23;;;;;;;;;0.00;0.00;;;;;26.82;33.92;102171.53;5124926;27;45416;-63
2021/06/13 07:32:49;;;;;;;;;0.00;0.00;;;;;26.94;32.58;102168.13;5106573;27;45456;-62
2021/06/13 07:35:18;;;;;;;;;0.00;0.00;;;;;26.99;31.82;102175.63;5124290;27;45467;-62
2021/06/13 07:37:44;;;;;;;;;0.00;0.00;;;;;26.97;31.86;102166.91;5111634;27;45380;-63
2021/06/13 07:40:10;;;;;;;;;0.00;0.00;;;;;27.03;31.78;102174.22;5125024;27;45466;-62
2021/06/13 07:42:36;;;;;;;;;0.00;0.00;;;;;27.11;30.59;102176.78;5125429;27;45440;-63
2021/06/13 07:45:04;;;;;;;;;0.00;0.00;;;;;27.29;30.82;102179.03;5124695;27;45347;-62
2021/06/13 07:47:30;;;;;;;;;0.00;0.00;;;;;27.25;30.47;102172.38;5124652;27;45265;-63
2021/06/13 07:49:56;;;;;;;;;0.00;0.00;;;;;27.40;30.55;102174.97;5124410;27;45334;-63
2021/06/13 07:52:21;;;;;;;;;0.00;0.00;;;;;27.29;29.86;102172.81;5123696;27;45610;-62
2021/06/13 07:54:47;;;;;;;;;0.00;0.00;;;;;27.33;30.32;102164.13;5109301;27;47236;-62
2021/06/13 07:57:12;;;;;;;;;0.00;0.00;;;;;27.28;29.69;102160.34;5111248;27;45313;-62
2021/06/13 07:59:39;;;;;;;;;0.00;0.00;;;;;27.30;29.85;102153.75;5123053;27;45521;-63
2021/06/13 08:02:04;;;;;;;;;0.00;0.00;;;;;27.53;30.12;102161.56;5124660;27;45298;-63
2021/06/13 08:04:35;;;;;;;;;0.00;0.00;;;;;27.78;28.95;102161.13;5123963;27;46962;-63
2021/06/13 08:07:01;;;;;;;;;0.00;0.00;;;;;27.89;29.11;102160.59;5123639;27;45474;-63
2021/06/13 08:09:26;;;;;;;;;0.00;0.00;;;;;28.09;28.73;102165.25;5123242;27;45302;-63
2021/06/13 08:11:51;;;;;;;;;0.00;0.00;;;;;28.33;28.75;102164.69;5105470;27;45266;-63
2021/06/13 08:14:17;;;;;;;;;0.00;0.00;;;;;28.54;28.24;102171.88;5117614;27;45386;-63
2021/06/13 08:16:43;;;;;;;;;0.00;0.00;;;;;28.61;27.22;102164.59;5124204;27;45323;-64
2021/06/13 08:19:08;;;;;;;;;0.00;0.00;;;;;28.64;27.90;102166.09;5124263;27;45361;-62
2021/06/13 08:21:35;;;;;;;;;0.00;0.00;;;;;28.88;27.60;102164.66;5123852;27;45284;-63
2021/06/13 08:24:00;;;;;;;;;0.00;0.00;;;;;29.08;27.65;102171.94;5123735;27;47368;-62
2021/06/13 08:26:26;;;;;;;;;0.00;0.00;;;;;29.40;27.24;102157.59;5123206;27;45337;-63
2021/06/13 08:28:52;;;;;;;;;0.00;0.00;;;;;29.79;26.50;102165.88;5108827;27;45305;-63
2021/06/13 08:31:17;;;;;;;;;0.00;0.00;;;;;29.93;26.05;102162.06;5103175;27;45280;-62
2021/06/13 08:33:42;;;;;;;;;0.00;0.00;;;;;29.95;24.61;102165.38;5117516;27;46282;-62
2021/06/13 08:36:08;;;;;;;;;0.00;0.00;;;;;30.19;25.75;102165.72;5123444;27;45316;-62
2021/06/13 08:38:34;;;;;;;;;0.00;0.00;;;;;30.97;24.91;102168.22;5123534;27;45240;-62
2021/06/13 08:40:59;;;;;;;;;0.00;0.00;;;;;31.96;25.08;102162.03;5123755;27;45162;-62
2021/06/13 08:43:25;;;;;;;;;0.00;0.00;;;;;33.23;22.14;102156.44;5123140;27;45364;-63
2021/06/13 08:45:56;;;;;;;;;1.00;1.00;;;;;33.87;20.14;102150.22;5109591;27;45261;-63
2021/06/13 08:48:26;;;;;;;;;0.00;0.00;;;;;34.99;21.76;102153.34;5123286;27;45240;-62
2021/06/13 08:50:52;;;;;;;;;0.00;0.00;;;;;36.42;20.18;102148.94;5123451;27;45315;-62
2021/06/13 08:53:17;;;;;;;;;0.00;0.00;;;;;37.80;16.99;102166.34;5122602;27;46482;-62
2021/06/13 08:55:43;;;;;;;;;0.00;0.00;;;;;38.77;18.41;102152.00;5104904;27;45321;-63
2021/06/13 08:58:10;;;;;;;;;0.00;0.00;;;;;40.70;15.18;102150.63;5122540;27;45775;-62
2021/06/13 09:00:36;;;;;;;;;25.00;25.00;;;;;41.59;14.94;102162.09;5114713;27;45503;-63
2021/06/13 09:03:07;;;;;;;;;0.00;0.00;;;;;42.86;15.46;102157.72;5085410;27;47988;-63
2021/06/13 09:05:33;;;;;;;;;0.00;0.00;;;;;44.47;13.85;102156.78;5122913;27;45351;-62
2021/06/13 09:08:01;;;;;;;;;0.00;0.00;;;;;45.43;12.53;102156.09;5103935;27;45337;-63
2021/06/13 09:10:31;;;;;;;;;0.00;0.00;;;;;45.63;12.71;102165.78;5123082;27;45333;-61
2021/06/13 09:13:24;;;;;;;;;0.00;0.00;;;;;46.01;10.13;102158.81;5108350;27;47116;-63
2021/06/13 09:15:53;;;;;;;;;0.00;0.00;;;;;46.28;11.25;102160.41;5103579;27;45306;-62
2021/06/13 09:18:36;;;;;;;;;0.00;0.00;;;;;46.91;11.57;102149.63;5090739;27;45499;-63
2021/06/13 09:21:29;;;;;;;;;0.00;0.00;;;;;47.54;9.85;102143.44;5122460;27;45483;-63
2021/06/13 09:23:55;;;;;;;;;0.00;0.00;;;;;48.13;11.00;102145.25;5121794;27;46161;-63
2021/06/13 09:26:25;;;;;;;;;0.00;0.00;;;;;48.24;9.83;102140.88;5122994;27;45245;-62
2021/06/13 09:28:52;;;;;;;;;0.00;0.00;;;;;48.19;10.26;102141.06;5122867;27;45315;-62
2021/06/13 09:31:30;;;;;;;;;0.00;0.00;;;;;48.44;10.49;102141.97;5122531;27;45437;-63
2021/06/13 09:34:00;;;;;;;;;0.00;0.00;;;;;48.52;10.34;102141.06;5105531;27;47110;-62
2021/06/13 09:36:35;;;;;;;;;0.00;0.00;;;;;48.47;10.95;102144.91;5102292;27;45779;-63
2021/06/13 09:39:05;;;;;;;;;0.00;0.00;;;;;48.22;10.90;102144.00;5120817;27;45305;-63
2021/06/13 09:41:34;;;;;;;;;0.00;0.00;;;;;47.06;10.06;102142.69;5122615;27;45399;-64
2021/06/13 09:44:03;;;;;;;;;0.00;0.00;;;;;45.32;11.54;102132.59;5122225;27;46089;-63
2021/06/13 09:46:32;;;;;;;;;0.00;0.00;;;;;44.49;12.54;102135.94;5122045;27;45261;-64
2021/06/13 09:49:06;;;;;;;;;0.00;0.00;;;;;44.76;13.14;102142.44;5115463;27;45246;-63
2021/06/13 09:51:34;;;;;;;;;0.00;0.00;;;;;44.87;12.96;102132.75;5116362;27;45294;-63
2021/06/13 09:54:02;;;;;;;;;1.00;1.00;;;;;44.87;11.51;102143.03;5121655;27;45419;-63
2021/06/13 09:56:39;;;;;;;;;0.00;0.00;;;;;43.71;12.57;102138.06;5121839;27;45908;-64
2021/06/13 09:59:16;;;;;;;;;0.00;0.00;;;;;43.24;12.21;102140.16;5122522;27;45224;-64
2021/06/13 10:01:42;;;;;;;;;0.00;0.00;;;;;42.58;12.17;102138.28;5121401;27;45336;-64
2021/06/13 10:04:17;;;;;;;;;0.00;0.00;;;;;42.00;12.94;102144.19;5120954;27;46464;-62
2021/06/13 10:06:42;;;;;;;;;0.00;0.00;;;;;41.87;13.88;102136.63;5120860;27;45799;-64
2021/06/13 10:09:08;;;;;;;;;0.00;0.00;;;;;42.49;14.00;102131.03;5121536;27;45421;-64
2021/06/13 10:11:37;;;;;;;;;0.00;0.00;;;;;42.90;13.47;102119.25;5102805;27;45428;-63
2021/06/13 10:14:23;;;;;;;;;0.00;0.00;;;;;44.07;12.88;102123.44;5108773;27;46360;-63
2021/06/13 10:16:51;;;;;;;;;0.00;0.00;;;;;45.13;11.51;102130.06;5090666;27;45238;-63
2021/06/13 10:19:20;;;;;;;;;0.00;0.00;;;;;45.69;10.14;102129.56;5121263;27;45345;-63
2021/06/13 10:21:49;;;;;;;;;0.00;0.00;;;;;46.20;10.16;102131.53;5112788;27;45238;-63
2021/06/13 10:24:19;;;;;;;;;0.00;0.00;;;;;46.09;9.48;102126.63;5115184;27;46202;-63
2021/06/13 10:26:58;;;;;;;;;0.00;0.00;;;;;46.76;9.62;102125.97;5121971;27;45385;-64
2021/06/13 10:29:29;;;;;;;;;0.00;0.00;;;;;48.21;9.69;102133.19;5121230;27;45229;-63
2021/06/13 10:31:57;;;;;;;;;0.00;0.00;;;;;48.51;8.83;102127.47;5121635;27;45427;-64
2021/06/13 10:34:26;;;;;;;;;0.00;0.00;;;;;48.31;8.52;102121.63;5121582;27;46437;-63
2021/06/13 10:36:54;;;;;;;;;0.00;0.00;;;;;47.99;8.58;102117.69;5107962;27;45395;-63
2021/06/13 10:39:22;;;;;;;;;0.00;0.00;;;;;47.51;9.84;102116.25;5120921;27;45289;-64
2021/06/13 10:41:49;;;;;;;;;0.00;0.00;;;;;46.72;9.95;102115.84;5121738;27;45239;-64
2021/06/13 10:44:20;;;;;;;;;0.00;0.00;;;;;45.10;10.20;102111.31;5120645;27;46253;-63
2021/06/13 10:46:51;;;;;;;;;0.00;0.00;;;;;43.14;11.69;102108.00;5121030;27;45325;-63
2021/06/13 10:49:37;;;;;;;;;0.00;0.00;;;;;41.10;12.34;102112.75;5102549;27;45314;-65
2021/06/13 10:52:06;;;;;;;;;1.00;1.00;;;;;39.68;13.83;102106.16;5102025;27;45490;-63
2021/06/13 10:54:35;;;;;;;;;0.00;0.00;;;;;38.42;14.74;102101.47;5102108;27;47211;-63
2021/06/13 10:57:04;;;;;;;;;0.00;0.00;;;;;37.66;16.14;102092.00;5120643;27;45518;-63
2021/06/13 10:59:37;;;;;;;;;0.00;0.00;;;;;37.74;16.05;102090.66;5121068;27;45361;-63
2021/06/13 11:02:11;;;;;;;;;0.00;0.00;;;;;37.67;15.78;102079.09;5120773;27;45394;-63
2021/06/13 11:04:43;;;;;;;;;0.00;0.00;;;;;37.72;15.24;102087.38;5120668;27;46222;-63
2021/06/13 11:07:08;;;;;;;;;0.00;0.00;;;;;37.76;15.66;102080.25;5120359;27;45273;-63
2021/06/13 11:10:09;;;;;;;;;0.00;0.00;;;;;37.96;16.15;102077.53;5121053;27;45243;-63
2021/06/13 11:12:49;;;;;;;;;0.00;0.00;;;;;38.00;15.36;102082.50;5106179;27;45316;-63
2021/06/13 11:15:35;;;;;;;;;0.00;0.00;;;;;37.55;14.33;102077.41;5120896;27;45388;-63
2021/06/13 11:18:01;;;;;;;;;0.00;0.00;;;;;36.80;15.89;102078.66;5120557;27;45412;-63
2021/06/13 11:22:59;;;;;;;;;0.00;0.00;;;;;35.90;16.04;102079.22;5120738;27;45411;-64
2021/06/13 11:25:26;;;;;;;;;0.00;0.00;;;;;35.24;16.00;102076.47;5102044;27;46113;-64
2021/06/13 11:28:16;;;;;;;;;0.00;0.00;;;;;34.71;16.86;102073.25;5099852;27;45409;-63
2021/06/13 11:30:51;;;;;;;;;0.00;0.00;;;;;34.66;17.46;102067.69;5116852;27;45274;-64